Mtm Penang — 9V2994 — position and weather

sailwx.info

Track history (hours):
 
Tides and Currents Weather Stations Pressure Air Temp Water Temp Dewpoint Dewpoint Depression Visibility Wind Speed Wind Dir Waves Ship Positions

Mtm Penang

Last reported at 2018-Jun-24 23:09 UTC. Time now 2018-Jul-22 21:35 UTC.
Position N 09°11' W 079°52'.
Warning: this ship's position is 27 days out of date.

Length 150 m; draft 10.5 m.

Type: Ship (hazmat cat C). MMSI: 565871000.

Date/timePositionNaut miles runAvg speedWind from/ knotsBaromVisibWave heightAir tempDewpointWater temp
2018-Jun-24 23:09N 09°11' W 079°52'411.9
2018-Jun-24 22:51N 09°13' W 079°55'3 9.8
2018-Jun-24 22:30N 09°16' W 079°55'0 0.8
2018-Jun-24 22:00N 09°16' W 079°55'0 0.4
2018-Jun-24 21:30N 09°17' W 079°55'0 0.4
2018-Jun-24 21:00N 09°17' W 079°55'1 1.7
2018-Jun-24 20:30N 09°18' W 079°55'2 5.0
2018-Jun-24 20:00N 09°20' W 079°55'3 5.1
2018-Jun-24 19:30N 09°23' W 079°56'0 0.1
2018-Jun-24 19:00N 09°23' W 079°56'0 0.0
2018-Jun-24 18:30N 09°23' W 079°56'0 0.0
2018-Jun-24 18:00N 09°23' W 079°56'0 0.0
2018-Jun-24 17:30N 09°23' W 079°56'0 0.1
2018-Jun-24 17:00N 09°23' W 079°56'0 0.4
2018-Jun-24 16:30N 09°23' W 079°56'2 3.6
2018-Jun-24 16:00N 09°25' W 079°55'1 1.7
2018-Jun-24 15:30N 09°25' W 079°55'1 1.9
2018-Jun-24 14:56N 09°24' W 079°56'0 0.0
2018-Jun-24 14:29N 09°24' W 079°56'0 0.0
2018-Jun-24 13:59N 09°24' W 079°56'0 0.0
2018-Jun-24 13:29N 09°24' W 079°56'0 0.0
2018-Jun-24 11:35N 09°24' W 079°56'0 0.0
2018-Jun-24 11:20N 09°24' W 079°56'0 0.0
2018-Jun-24 11:00N 09°24' W 079°56'0 0.0
2018-Jun-24 10:30N 09°24' W 079°56'0 0.0
2018-Jun-24 08:59N 09°24' W 079°56'0 0.0
2018-Jun-24 08:22N 09°24' W 079°56'0 0.0
2018-Jun-24 07:48N 09°24' W 079°56'0 0.0
2018-Jun-24 07:22N 09°24' W 079°56'0 0.0
2018-Jun-24 07:00N 09°24' W 079°56'0 0.0
2018-Jun-24 06:30N 09°24' W 079°56'0 0.1
2018-Jun-24 06:00N 09°24' W 079°56'0 0.0
2018-Jun-24 05:30N 09°24' W 079°56'0 0.0
2018-Jun-24 04:59N 09°24' W 079°56'0 0.0
2018-Jun-24 04:30N 09°24' W 079°56'0 0.0
2018-Jun-24 04:00N 09°24' W 079°56'0 0.1
2018-Jun-24 03:30N 09°24' W 079°56'0 0.0
2018-Jun-24 03:00N 09°24' W 079°56'0 0.0
2018-Jun-24 02:30N 09°24' W 079°56'0 0.0
2018-Jun-24 02:00N 09°24' W 079°56'0 0.1
2018-Jun-24 01:30N 09°24' W 079°56'1 1.3
2018-Jun-24 01:00N 09°25' W 079°56'3 6.0
2018-Jun-24 00:30N 09°28' W 079°55'3 6.1
2018-Jun-23 23:59N 09°31' W 079°54'5 9.3
2018-Jun-23 23:29N 09°35' W 079°52'610.5
2018-Jun-23 22:56N 09°41' W 079°51'  
Track history (hours):
 
Tides and Currents Weather Stations Pressure Air Temp Water Temp Dewpoint Dewpoint Depression Visibility Wind Speed Wind Dir Waves Ship Positions

Mtm Penang

Last reported at 2018-Jun-24 23:09 UTC. Time now 2018-Jul-22 21:35 UTC.
Position N 09°11' W 079°52'.
Warning: this ship's position is 27 days out of date.

Length 150 m; draft 10.5 m.

Type: Ship (hazmat cat C). MMSI: 565871000.

Date/timePositionNaut miles runAvg speedWind from/ knotsBaromVisibWave heightAir tempDewpointWater temp
2018-Jun-24 23:09N 09°11' W 079°52'411.9
2018-Jun-24 22:51N 09°13' W 079°55'3 9.8
2018-Jun-24 22:30N 09°16' W 079°55'0 0.8
2018-Jun-24 22:00N 09°16' W 079°55'0 0.4
2018-Jun-24 21:30N 09°17' W 079°55'0 0.4
2018-Jun-24 21:00N 09°17' W 079°55'1 1.7
2018-Jun-24 20:30N 09°18' W 079°55'2 5.0
2018-Jun-24 20:00N 09°20' W 079°55'3 5.1
2018-Jun-24 19:30N 09°23' W 079°56'0 0.1
2018-Jun-24 19:00N 09°23' W 079°56'0 0.0
2018-Jun-24 18:30N 09°23' W 079°56'0 0.0
2018-Jun-24 18:00N 09°23' W 079°56'0 0.0
2018-Jun-24 17:30N 09°23' W 079°56'0 0.1
2018-Jun-24 17:00N 09°23' W 079°56'0 0.4
2018-Jun-24 16:30N 09°23' W 079°56'2 3.6
2018-Jun-24 16:00N 09°25' W 079°55'1 1.7
2018-Jun-24 15:30N 09°25' W 079°55'1 1.9
2018-Jun-24 14:56N 09°24' W 079°56'0 0.0
2018-Jun-24 14:29N 09°24' W 079°56'0 0.0
2018-Jun-24 13:59N 09°24' W 079°56'0 0.0
2018-Jun-24 13:29N 09°24' W 079°56'0 0.0
2018-Jun-24 11:35N 09°24' W 079°56'0 0.0
2018-Jun-24 11:20N 09°24' W 079°56'0 0.0
2018-Jun-24 11:00N 09°24' W 079°56'0 0.0
2018-Jun-24 10:30N 09°24' W 079°56'0 0.0
2018-Jun-24 08:59N 09°24' W 079°56'0 0.0
2018-Jun-24 08:22N 09°24' W 079°56'0 0.0
2018-Jun-24 07:48N 09°24' W 079°56'0 0.0
2018-Jun-24 07:22N 09°24' W 079°56'0 0.0
2018-Jun-24 07:00N 09°24' W 079°56'0 0.0
2018-Jun-24 06:30N 09°24' W 079°56'0 0.1
2018-Jun-24 06:00N 09°24' W 079°56'0 0.0
2018-Jun-24 05:30N 09°24' W 079°56'0 0.0
2018-Jun-24 04:59N 09°24' W 079°56'0 0.0
2018-Jun-24 04:30N 09°24' W 079°56'0 0.0
2018-Jun-24 04:00N 09°24' W 079°56'0 0.1
2018-Jun-24 03:30N 09°24' W 079°56'0 0.0
2018-Jun-24 03:00N 09°24' W 079°56'0 0.0
2018-Jun-24 02:30N 09°24' W 079°56'0 0.0
2018-Jun-24 02:00N 09°24' W 079°56'0 0.1
2018-Jun-24 01:30N 09°24' W 079°56'1 1.3
2018-Jun-24 01:00N 09°25' W 079°56'3 6.0
2018-Jun-24 00:30N 09°28' W 079°55'3 6.1
2018-Jun-23 23:59N 09°31' W 079°54'5 9.3
2018-Jun-23 23:29N 09°35' W 079°52'610.5
2018-Jun-23 22:56N 09°41' W 079°51'  

Dump ship's entire track history